sensor_id;sensor_type;location;lat;lon;timestamp;pressure;altitude;pressure_sealevel;temperature;humidity
15694;BME280;7947;48.834;9.132;2022-10-16T00:02:03;98062.09;;;15.73;100.00
15694;BME280;7947;48.834;9.132;2022-10-16T00:05:08;98053.16;;;15.73;100.00
15694;BME280;7947;48.834;9.132;2022-10-16T00:08:13;98048.06;;;15.71;100.00
15694;BME280;7947;48.834;9.132;2022-10-16T00:11:21;98051.28;;;15.73;100.00
15694;BME280;7947;48.834;9.132;2022-10-16T00:14:26;98049.97;;;15.71;100.00
15694;BME280;7947;48.834;9.132;2022-10-16T00:17:31;98055.69;;;15.69;100.00
15694;BME280;7947;48.834;9.132;2022-10-16T00:20:36;98052.81;;;15.66;100.00
15694;BME280;7947;48.834;9.132;2022-10-16T00:23:42;98047.19;;;15.62;100.00
15694;BME280;7947;48.834;9.132;2022-10-16T00:26:49;98050.53;;;15.59;100.00
15694;BME280;7947;48.834;9.132;2022-10-16T00:29:55;98055.94;;;15.59;100.00
15694;BME280;7947;48.834;9.132;2022-10-16T00:33:00;98053.38;;;15.54;100.00
15694;BME280;7947;48.834;9.132;2022-10-16T00:36:06;98057.66;;;15.55;100.00
15694;BME280;7947;48.834;9.132;2022-10-16T00:39:11;98055.09;;;15.50;100.00
15694;BME280;7947;48.834;9.132;2022-10-16T00:42:18;98075.41;;;15.48;100.00
15694;BME280;7947;48.834;9.132;2022-10-16T00:45:23;98065.53;;;15.43;100.00
15694;BME280;7947;48.834;9.132;2022-10-16T00:48:28;98075.25;;;15.44;100.00
15694;BME280;7947;48.834;9.132;2022-10-16T00:51:35;98058.81;;;15.41;100.00
15694;BME280;7947;48.834;9.132;2022-10-16T00:54:40;98061.03;;;15.38;100.00
15694;BME280;7947;48.834;9.132;2022-10-16T00:57:49;98056.22;;;15.35;100.00
15694;BME280;7947;48.834;9.132;2022-10-16T01:00:56;98061.13;;;15.33;100.00
15694;BME280;7947;48.834;9.132;2022-10-16T01:04:01;98070.03;;;15.34;100.00
15694;BME280;7947;48.834;9.132;2022-10-16T01:07:12;98081.66;;;15.34;100.00
15694;BME280;7947;48.834;9.132;2022-10-16T01:10:26;98076.53;;;15.33;100.00
15694;BME280;7947;48.834;9.132;2022-10-16T01:13:38;98081.94;;;15.33;100.00
15694;BME280;7947;48.834;9.132;2022-10-16T01:16:49;98081.34;;;15.36;100.00
15694;BME280;7947;48.834;9.132;2022-10-16T01:20:04;98075.94;;;15.36;100.00
15694;BME280;7947;48.834;9.132;2022-10-16T01:23:21;98067.84;;;15.36;100.00
15694;BME280;7947;48.834;9.132;2022-10-16T01:26:37;98075.63;;;15.37;100.00
15694;BME280;7947;48.834;9.132;2022-10-16T01:29:52;98065.44;;;15.34;100.00
15694;BME280;7947;48.834;9.132;2022-10-16T01:33:02;98072.94;;;15.37;100.00
15694;BME280;7947;48.834;9.132;2022-10-16T01:36:13;98070.84;;;15.34;100.00
15694;BME280;7947;48.834;9.132;2022-10-16T01:39:24;98061.75;;;15.30;100.00
15694;BME280;7947;48.834;9.132;2022-10-16T01:42:36;98078.16;;;15.34;100.00
15694;BME280;7947;48.834;9.132;2022-10-16T01:45:44;98071.94;;;15.33;100.00
15694;BME280;7947;48.834;9.132;2022-10-16T01:48:51;98070.03;;;15.34;100.00
15694;BME280;7947;48.834;9.132;2022-10-16T01:51:59;98060.31;;;15.33;100.00
15694;BME280;7947;48.834;9.132;2022-10-16T01:55:06;98059.16;;;15.25;100.00
15694;BME280;7947;48.834;9.132;2022-10-16T01:58:13;98064.06;;;15.23;100.00
15694;BME280;7947;48.834;9.132;2022-10-16T02:01:22;98055.69;;;15.25;100.00
15694;BME280;7947;48.834;9.132;2022-10-16T02:04:30;98053.16;;;15.28;100.00
15694;BME280;7947;48.834;9.132;2022-10-16T02:07:37;98055.06;;;15.28;100.00
15694;BME280;7947;48.834;9.132;2022-10-16T02:10:44;98057.75;;;15.28;100.00
15694;BME280;7947;48.834;9.132;2022-10-16T02:13:51;98059.06;;;15.30;100.00
15694;BME280;7947;48.834;9.132;2022-10-16T02:16:59;98057.16;;;15.31;100.00
15694;BME280;7947;48.834;9.132;2022-10-16T02:20:05;98056.53;;;15.34;100.00
15694;BME280;7947;48.834;9.132;2022-10-16T02:23:13;98060.22;;;15.38;100.00
15694;BME280;7947;48.834;9.132;2022-10-16T02:26:26;98075.03;;;15.41;100.00
15694;BME280;7947;48.834;9.132;2022-10-16T02:29:36;98075.25;;;15.44;100.00
15694;BME280;7947;48.834;9.132;2022-10-16T02:32:47;98051.41;;;15.46;100.00
15694;BME280;7947;48.834;9.132;2022-10-16T02:35:53;98061.91;;;15.48;100.00
15694;BME280;7947;48.834;9.132;2022-10-16T02:38:58;98062.41;;;15.50;100.00
15694;BME280;7947;48.834;9.132;2022-10-16T02:42:04;98064.78;;;15.51;100.00
15694;BME280;7947;48.834;9.132;2022-10-16T02:45:11;98054.78;;;15.52;100.00
15694;BME280;7947;48.834;9.132;2022-10-16T02:48:17;98068.28;;;15.52;100.00
15694;BME280;7947;48.834;9.132;2022-10-16T02:51:22;98063.69;;;15.52;100.00
15694;BME280;7947;48.834;9.132;2022-10-16T02:54:28;98072.00;;;15.56;100.00
15694;BME280;7947;48.834;9.132;2022-10-16T02:57:33;98066.59;;;15.56;100.00
15694;BME280;7947;48.834;9.132;2022-10-16T03:00:39;98080.59;;;15.58;100.00
15694;BME280;7947;48.834;9.132;2022-10-16T03:03:48;98076.91;;;15.54;100.00
15694;BME280;7947;48.834;9.132;2022-10-16T03:06:53;98069.09;;;15.52;100.00
15694;BME280;7947;48.834;9.132;2022-10-16T03:09:58;98076.22;;;15.48;100.00
15694;BME280;7947;48.834;9.132;2022-10-16T03:13:03;98080.81;;;15.48;100.00
15694;BME280;7947;48.834;9.132;2022-10-16T03:16:09;98078.44;;;15.46;100.00
15694;BME280;7947;48.834;9.132;2022-10-16T03:19:16;98090.66;;;15.44;100.00
15694;BME280;7947;48.834;9.132;2022-10-16T03:22:21;98086.06;;;15.44;100.00
15694;BME280;7947;48.834;9.132;2022-10-16T03:25:26;98081.16;;;15.46;100.00
15694;BME280;7947;48.834;9.132;2022-10-16T03:28:31;98080.03;;;15.47;100.00
15694;BME280;7947;48.834;9.132;2022-10-16T03:31:36;98083.53;;;15.48;100.00
15694;BME280;7947;48.834;9.132;2022-10-16T03:34:42;98077.94;;;15.44;100.00
15694;BME280;7947;48.834;9.132;2022-10-16T03:37:48;98081.75;;;15.43;100.00
15694;BME280;7947;48.834;9.132;2022-10-16T03:40:52;98084.44;;;15.43;100.00
15694;BME280;7947;48.834;9.132;2022-10-16T03:43:58;98081.75;;;15.43;100.00
15694;BME280;7947;48.834;9.132;2022-10-16T03:47:01;98076.50;;;15.47;100.00
15694;BME280;7947;48.834;9.132;2022-10-16T03:50:07;98083.84;;;15.46;100.00
15694;BME280;7947;48.834;9.132;2022-10-16T03:53:13;98082.22;;;15.45;100.00
15694;BME280;7947;48.834;9.132;2022-10-16T03:56:16;98081.75;;;15.43;100.00
15694;BME280;7947;48.834;9.132;2022-10-16T03:59:19;98080.72;;;15.39;100.00
15694;BME280;7947;48.834;9.132;2022-10-16T04:02:22;98089.13;;;15.37;100.00
15694;BME280;7947;48.834;9.132;2022-10-16T04:05:26;98081.03;;;15.37;100.00
15694;BME280;7947;48.834;9.132;2022-10-16T04:08:29;98093.16;;;15.40;100.00
15694;BME280;7947;48.834;9.132;2022-10-16T04:11:31;98088.66;;;15.35;100.00
15694;BME280;7947;48.834;9.132;2022-10-16T04:14:34;98091.97;;;15.32;100.00
15694;BME280;7947;48.834;9.132;2022-10-16T04:17:38;98089.28;;;15.32;100.00
15694;BME280;7947;48.834;9.132;2022-10-16T04:20:42;98090.66;;;15.30;100.00
15694;BME280;7947;48.834;9.132;2022-10-16T04:23:44;98082.88;;;15.28;100.00
15694;BME280;7947;48.834;9.132;2022-10-16T04:26:47;98085.91;;;15.27;100.00
15694;BME280;7947;48.834;9.132;2022-10-16T04:29:49;98079.19;;;15.24;100.00
15694;BME280;7947;48.834;9.132;2022-10-16T04:32:52;98085.19;;;15.21;100.00
15694;BME280;7947;48.834;9.132;2022-10-16T04:36:00;98088.19;;;15.20;100.00
15694;BME280;7947;48.834;9.132;2022-10-16T04:39:03;98090.91;;;15.20;100.00
15694;BME280;7947;48.834;9.132;2022-10-16T04:42:06;98089.63;;;15.17;100.00
15694;BME280;7947;48.834;9.132;2022-10-16T04:45:09;98094.22;;;15.17;100.00
15694;BME280;7947;48.834;9.132;2022-10-16T04:48:17;98105.84;;;15.17;100.00
15694;BME280;7947;48.834;9.132;2022-10-16T04:51:21;98102.91;;;15.14;100.00
15694;BME280;7947;48.834;9.132;2022-10-16T04:54:24;98112.63;;;15.15;100.00
15694;BME280;7947;48.834;9.132;2022-10-16T04:57:27;98121.56;;;15.15;100.00
15694;BME280;7947;48.834;9.132;2022-10-16T05:00:30;98121.34;;;15.12;100.00
15694;BME280;7947;48.834;9.132;2022-10-16T05:03:32;98115.94;;;15.12;100.00
15694;BME280;7947;48.834;9.132;2022-10-16T05:06:37;98128.34;;;15.13;100.00
15694;BME280;7947;48.834;9.132;2022-10-16T05:09:40;98130.44;;;15.16;100.00
15694;BME280;7947;48.834;9.132;2022-10-16T05:12:43;98123.44;;;15.15;100.00
15694;BME280;7947;48.834;9.132;2022-10-16T05:15:46;98123.44;;;15.15;100.00
15694;BME280;7947;48.834;9.132;2022-10-16T05:18:50;98114.53;;;15.14;100.00
15694;BME280;7947;48.834;9.132;2022-10-16T05:22:06;98114.22;;;15.16;100.00
15694;BME280;7947;48.834;9.132;2022-10-16T05:25:08;98113.13;;;15.17;100.00
15694;BME280;7947;48.834;9.132;2022-10-16T05:28:11;98108.31;;;15.14;100.00
15694;BME280;7947;48.834;9.132;2022-10-16T05:31:14;98122.31;;;15.16;100.00
15694;BME280;7947;48.834;9.132;2022-10-16T05:34:17;98118.13;;;15.10;100.00
15694;BME280;7947;48.834;9.132;2022-10-16T05:37:21;98124.16;;;15.07;100.00
15694;BME280;7947;48.834;9.132;2022-10-16T05:40:24;98137.16;;;15.05;100.00
15694;BME280;7947;48.834;9.132;2022-10-16T05:43:27;98136.66;;;15.03;100.00
15694;BME280;7947;48.834;9.132;2022-10-16T05:46:30;98131.25;;;15.03;100.00
15694;BME280;7947;48.834;9.132;2022-10-16T05:49:32;98131.56;;;15.01;100.00
15694;BME280;7947;48.834;9.132;2022-10-16T05:52:42;98137.28;;;15.00;100.00
15694;BME280;7947;48.834;9.132;2022-10-16T05:55:51;98144.47;;;15.04;100.00
15694;BME280;7947;48.834;9.132;2022-10-16T05:58:54;98147.16;;;15.04;100.00
15694;BME280;7947;48.834;9.132;2022-10-16T06:01:57;98146.75;;;15.11;100.00
15694;BME280;7947;48.834;9.132;2022-10-16T06:05:00;98150.91;;;15.30;100.00
15694;BME280;7947;48.834;9.132;2022-10-16T06:08:04;98155.69;;;15.33;100.00
15694;BME280;7947;48.834;9.132;2022-10-16T06:11:08;98155.88;;;15.37;100.00
15694;BME280;7947;48.834;9.132;2022-10-16T06:14:11;98162.09;;;15.37;100.00
15694;BME280;7947;48.834;9.132;2022-10-16T06:17:14;98167.19;;;15.39;100.00
15694;BME280;7947;48.834;9.132;2022-10-16T06:20:17;98166.59;;;15.56;100.00
15694;BME280;7947;48.834;9.132;2022-10-16T06:23:21;98157.53;;;15.60;100.00
15694;BME280;7947;48.834;9.132;2022-10-16T06:26:26;98165.66;;;15.60;100.00
15694;BME280;7947;48.834;9.132;2022-10-16T06:29:28;98169.34;;;15.64;100.00
15694;BME280;7947;48.834;9.132;2022-10-16T06:32:31;98173.66;;;15.65;100.00
15694;BME280;7947;48.834;9.132;2022-10-16T06:35:34;98167.25;;;15.83;100.00
15694;BME280;7947;48.834;9.132;2022-10-16T06:38:38;98167.44;;;16.09;100.00
15694;BME280;7947;48.834;9.132;2022-10-16T06:41:41;98167.13;;;16.10;100.00
15694;BME280;7947;48.834;9.132;2022-10-16T06:44:44;98177.09;;;16.01;100.00
15694;BME280;7947;48.834;9.132;2022-10-16T06:47:46;98177.34;;;15.91;100.00
15694;BME280;7947;48.834;9.132;2022-10-16T06:50:57;98191.81;;;15.87;100.00
15694;BME280;7947;48.834;9.132;2022-10-16T06:54:01;98195.13;;;15.84;100.00
15694;BME280;7947;48.834;9.132;2022-10-16T06:57:05;98199.25;;;15.81;100.00
15694;BME280;7947;48.834;9.132;2022-10-16T07:00:08;98195.44;;;15.82;100.00
15694;BME280;7947;48.834;9.132;2022-10-16T07:03:11;98210.25;;;15.85;100.00
15694;BME280;7947;48.834;9.132;2022-10-16T07:06:15;98206.59;;;15.89;100.00
15694;BME280;7947;48.834;9.132;2022-10-16T07:09:20;98216.69;;;15.97;100.00
15694;BME280;7947;48.834;9.132;2022-10-16T07:12:22;98225.19;;;16.04;100.00
15694;BME280;7947;48.834;9.132;2022-10-16T07:15:26;98222.03;;;16.11;100.00
15694;BME280;7947;48.834;9.132;2022-10-16T07:18:28;98229.25;;;16.15;100.00
15694;BME280;7947;48.834;9.132;2022-10-16T07:21:34;98229.75;;;16.17;100.00
15694;BME280;7947;48.834;9.132;2022-10-16T07:24:40;98241.06;;;16.19;100.00
15694;BME280;7947;48.834;9.132;2022-10-16T07:27:43;98238.66;;;16.18;100.00
15694;BME280;7947;48.834;9.132;2022-10-16T07:30:46;98244.38;;;16.16;100.00
15694;BME280;7947;48.834;9.132;2022-10-16T07:33:48;98250.09;;;16.15;100.00
15694;BME280;7947;48.834;9.132;2022-10-16T07:36:51;98262.03;;;16.14;100.00
15694;BME280;7947;48.834;9.132;2022-10-16T07:39:55;98247.19;;;16.11;100.00
15694;BME280;7947;48.834;9.132;2022-10-16T07:42:58;98244.50;;;16.11;100.00
15694;BME280;7947;48.834;9.132;2022-10-16T07:46:03;98240.66;;;16.12;100.00
15694;BME280;7947;48.834;9.132;2022-10-16T07:49:08;98255.19;;;16.16;100.00
15694;BME280;7947;48.834;9.132;2022-10-16T07:52:11;98254.59;;;16.19;100.00
15694;BME280;7947;48.834;9.132;2022-10-16T07:55:15;98257.97;;;16.25;100.00
15694;BME280;7947;48.834;9.132;2022-10-16T07:58:18;98264.84;;;16.31;100.00
15694;BME280;7947;48.834;9.132;2022-10-16T08:01:20;98269.81;;;16.38;100.00
15694;BME280;7947;48.834;9.132;2022-10-16T08:04:23;98268.31;;;16.45;100.00
15694;BME280;7947;48.834;9.132;2022-10-16T08:07:26;98275.69;;;16.53;100.00
15694;BME280;7947;48.834;9.132;2022-10-16T08:10:30;98274.63;;;16.63;100.00
15694;BME280;7947;48.834;9.132;2022-10-16T08:13:33;98280.41;;;16.70;100.00
15694;BME280;7947;48.834;9.132;2022-10-16T08:16:36;98272.53;;;16.82;100.00
15694;BME280;7947;48.834;9.132;2022-10-16T08:19:39;98271.31;;;16.96;99.59
15694;BME280;7947;48.834;9.132;2022-10-16T08:22:41;98277.75;;;17.09;99.31
15694;BME280;7947;48.834;9.132;2022-10-16T08:25:45;98277.31;;;17.24;98.23
15694;BME280;7947;48.834;9.132;2022-10-16T08:28:49;98292.50;;;17.34;96.08
15694;BME280;7947;48.834;9.132;2022-10-16T08:31:52;98304.16;;;17.43;95.15
15694;BME280;7947;48.834;9.132;2022-10-16T08:34:54;98298.31;;;17.49;95.46
15694;BME280;7947;48.834;9.132;2022-10-16T08:37:57;98297.53;;;17.57;95.70
15694;BME280;7947;48.834;9.132;2022-10-16T08:41:17;98299.78;;;17.64;95.47
15694;BME280;7947;48.834;9.132;2022-10-16T08:44:34;98293.72;;;17.67;95.86
15694;BME280;7947;48.834;9.132;2022-10-16T08:47:47;98295.97;;;17.73;96.19
15694;BME280;7947;48.834;9.132;2022-10-16T08:50:52;98305.38;;;17.76;95.50
15694;BME280;7947;48.834;9.132;2022-10-16T08:53:56;98294.69;;;17.79;94.87
15694;BME280;7947;48.834;9.132;2022-10-16T08:57:09;98297.28;;;17.84;94.76
15694;BME280;7947;48.834;9.132;2022-10-16T09:00:13;98295.53;;;17.88;95.19
15694;BME280;7947;48.834;9.132;2022-10-16T09:03:24;98290.25;;;17.92;94.98
15694;BME280;7947;48.834;9.132;2022-10-16T09:06:40;98304.78;;;17.96;95.36
15694;BME280;7947;48.834;9.132;2022-10-16T09:10:11;98296.00;;;17.99;94.20
15694;BME280;7947;48.834;9.132;2022-10-16T09:13:23;98306.53;;;18.00;93.53
15694;BME280;7947;48.834;9.132;2022-10-16T09:16:32;98304.16;;;18.08;93.32
15694;BME280;7947;48.834;9.132;2022-10-16T09:19:38;98301.75;;;18.15;93.50
15694;BME280;7947;48.834;9.132;2022-10-16T09:22:44;98313.72;;;18.22;92.81
15694;BME280;7947;48.834;9.132;2022-10-16T09:25:49;98316.75;;;18.29;89.94
15694;BME280;7947;48.834;9.132;2022-10-16T09:28:53;98316.94;;;18.50;89.00
15694;BME280;7947;48.834;9.132;2022-10-16T09:32:11;98331.97;;;18.56;88.73
15694;BME280;7947;48.834;9.132;2022-10-16T09:35:17;98320.13;;;18.60;88.62
15694;BME280;7947;48.834;9.132;2022-10-16T09:38:23;98330.03;;;18.65;89.30
15694;BME280;7947;48.834;9.132;2022-10-16T09:41:26;98326.84;;;18.63;89.39
15694;BME280;7947;48.834;9.132;2022-10-16T09:44:31;98327.16;;;18.61;89.08
15694;BME280;7947;48.834;9.132;2022-10-16T09:47:37;98330.34;;;18.63;88.51
15694;BME280;7947;48.834;9.132;2022-10-16T09:50:42;98332.75;;;18.65;88.48
15694;BME280;7947;48.834;9.132;2022-10-16T09:53:46;98332.75;;;18.73;88.41
15694;BME280;7947;48.834;9.132;2022-10-16T09:56:49;98344.72;;;18.81;88.01
15694;BME280;7947;48.834;9.132;2022-10-16T09:59:56;98346.09;;;18.96;88.13
15694;BME280;7947;48.834;9.132;2022-10-16T10:02:59;98346.38;;;19.11;85.38
15694;BME280;7947;48.834;9.132;2022-10-16T10:06:14;98354.53;;;19.20;84.60
15694;BME280;7947;48.834;9.132;2022-10-16T10:09:20;98354.66;;;19.23;83.76
15694;BME280;7947;48.834;9.132;2022-10-16T10:12:24;98351.47;;;19.30;84.71
15694;BME280;7947;48.834;9.132;2022-10-16T10:15:33;98354.97;;;19.39;85.33
15694;BME280;7947;48.834;9.132;2022-10-16T10:18:36;98353.19;;;19.43;85.63
15694;BME280;7947;48.834;9.132;2022-10-16T10:21:39;98363.25;;;19.51;85.70
15694;BME280;7947;48.834;9.132;2022-10-16T10:24:43;98356.16;;;19.58;84.35
15694;BME280;7947;48.834;9.132;2022-10-16T10:31:20;98356.06;;;20.05;83.35
15694;BME280;7947;48.834;9.132;2022-10-16T10:34:38;98358.06;;;20.16;81.13
15694;BME280;7947;48.834;9.132;2022-10-16T10:37:51;98362.22;;;20.22;79.07
15694;BME280;7947;48.834;9.132;2022-10-16T10:41:12;98363.47;;;20.25;79.14
15694;BME280;7947;48.834;9.132;2022-10-16T10:44:27;98361.50;;;20.34;78.62
15694;BME280;7947;48.834;9.132;2022-10-16T10:47:42;98368.94;;;20.45;79.33
15694;BME280;7947;48.834;9.132;2022-10-16T10:50:49;98358.41;;;20.56;78.62
15694;BME280;7947;48.834;9.132;2022-10-16T10:54:02;98361.91;;;20.77;74.50
15694;BME280;7947;48.834;9.132;2022-10-16T10:57:10;98362.06;;;20.93;74.98
15694;BME280;7947;48.834;9.132;2022-10-16T11:00:21;98353.97;;;21.05;72.21
15694;BME280;7947;48.834;9.132;2022-10-16T11:03:35;98352.84;;;21.18;72.77
15694;BME280;7947;48.834;9.132;2022-10-16T11:06:47;98353.78;;;21.34;71.24
15694;BME280;7947;48.834;9.132;2022-10-16T11:09:53;98351.19;;;21.37;73.11
15694;BME280;7947;48.834;9.132;2022-10-16T11:13:04;98353.00;;;21.45;72.59
15694;BME280;7947;48.834;9.132;2022-10-16T11:16:15;98359.03;;;21.51;72.08
15694;BME280;7947;48.834;9.132;2022-10-16T11:19:32;98356.31;;;21.63;73.07
15694;BME280;7947;48.834;9.132;2022-10-16T11:22:39;98349.50;;;21.69;73.33
15694;BME280;7947;48.834;9.132;2022-10-16T11:25:45;98348.94;;;21.64;71.92
15694;BME280;7947;48.834;9.132;2022-10-16T11:28:51;98355.06;;;21.61;69.57
15694;BME280;7947;48.834;9.132;2022-10-16T11:31:59;98351.75;;;21.55;68.81
15694;BME280;7947;48.834;9.132;2022-10-16T11:35:11;98338.22;;;21.58;68.63
15694;BME280;7947;48.834;9.132;2022-10-16T11:38:31;98347.13;;;21.68;67.73
15694;BME280;7947;48.834;9.132;2022-10-16T11:41:39;98336.06;;;21.76;68.00
15694;BME280;7947;48.834;9.132;2022-10-16T11:44:51;98336.44;;;21.87;69.39
15694;BME280;7947;48.834;9.132;2022-10-16T11:48:00;98345.31;;;21.84;69.51
15694;BME280;7947;48.834;9.132;2022-10-16T11:51:09;98348.16;;;21.87;69.24
15694;BME280;7947;48.834;9.132;2022-10-16T11:54:19;98354.06;;;21.89;70.02
15694;BME280;7947;48.834;9.132;2022-10-16T11:57:26;98346.47;;;21.95;67.83
15694;BME280;7947;48.834;9.132;2022-10-16T12:00:34;98330.97;;;21.99;68.09
15694;BME280;7947;48.834;9.132;2022-10-16T12:03:43;98335.50;;;22.07;69.60
15694;BME280;7947;48.834;9.132;2022-10-16T12:06:57;98337.66;;;22.13;64.97
15694;BME280;7947;48.834;9.132;2022-10-16T12:10:10;98327.44;;;22.10;65.79
15694;BME280;7947;48.834;9.132;2022-10-16T12:13:32;98329.44;;;22.13;68.33
15694;BME280;7947;48.834;9.132;2022-10-16T12:16:37;98327.75;;;22.09;63.54
15694;BME280;7947;48.834;9.132;2022-10-16T12:19:40;98333.72;;;21.99;65.22
15694;BME280;7947;48.834;9.132;2022-10-16T12:22:50;98330.38;;;21.93;67.82
15694;BME280;7947;48.834;9.132;2022-10-16T12:25:56;98333.59;;;21.83;68.99
15694;BME280;7947;48.834;9.132;2022-10-16T12:29:13;98332.09;;;21.74;69.80
15694;BME280;7947;48.834;9.132;2022-10-16T12:32:27;98335.59;;;21.74;70.68
15694;BME280;7947;48.834;9.132;2022-10-16T12:35:48;98339.06;;;21.83;69.44
15694;BME280;7947;48.834;9.132;2022-10-16T12:38:53;98331.75;;;21.99;69.87
15694;BME280;7947;48.834;9.132;2022-10-16T12:42:03;98335.34;;;22.27;67.64
15694;BME280;7947;48.834;9.132;2022-10-16T12:45:24;98335.94;;;22.61;66.43
15694;BME280;7947;48.834;9.132;2022-10-16T12:48:27;98330.13;;;22.90;64.59
15694;BME280;7947;48.834;9.132;2022-10-16T12:51:49;98329.16;;;23.13;66.11
15694;BME280;7947;48.834;9.132;2022-10-16T12:54:55;98332.88;;;23.21;64.59
15694;BME280;7947;48.834;9.132;2022-10-16T12:58:18;98349.66;;;23.19;63.32
15694;BME280;7947;48.834;9.132;2022-10-16T13:01:34;98342.97;;;23.17;65.19
15694;BME280;7947;48.834;9.132;2022-10-16T13:04:50;98342.75;;;23.10;64.51
15694;BME280;7947;48.834;9.132;2022-10-16T13:08:11;98343.63;;;22.98;63.88
15694;BME280;7947;48.834;9.132;2022-10-16T13:11:25;98345.53;;;22.82;65.25
15694;BME280;7947;48.834;9.132;2022-10-16T13:14:46;98350.63;;;22.68;64.25
15694;BME280;7947;48.834;9.132;2022-10-16T13:17:59;98352.22;;;22.57;66.71
15694;BME280;7947;48.834;9.132;2022-10-16T13:21:23;98350.75;;;22.48;67.71
15694;BME280;7947;48.834;9.132;2022-10-16T13:24:42;98343.63;;;22.43;68.58
15694;BME280;7947;48.834;9.132;2022-10-16T13:28:00;98349.66;;;22.36;68.84
15694;BME280;7947;48.834;9.132;2022-10-16T13:31:14;98354.25;;;22.20;69.85
15694;BME280;7947;48.834;9.132;2022-10-16T13:34:21;98349.03;;;22.03;72.04
15694;BME280;7947;48.834;9.132;2022-10-16T13:37:24;98354.84;;;21.90;74.45
15694;BME280;7947;48.834;9.132;2022-10-16T13:40:29;98354.81;;;21.78;73.51
15694;BME280;7947;48.834;9.132;2022-10-16T13:43:35;98352.22;;;21.69;74.08
15694;BME280;7947;48.834;9.132;2022-10-16T13:46:40;98358.81;;;21.68;74.33
15694;BME280;7947;48.834;9.132;2022-10-16T13:49:43;98361.09;;;21.66;73.03
15694;BME280;7947;48.834;9.132;2022-10-16T13:52:45;98352.91;;;21.78;73.49
15694;BME280;7947;48.834;9.132;2022-10-16T13:55:48;98349.28;;;21.98;73.06
15694;BME280;7947;48.834;9.132;2022-10-16T13:58:59;98355.50;;;22.11;69.90
15694;BME280;7947;48.834;9.132;2022-10-16T14:02:10;98344.03;;;22.05;67.40
15694;BME280;7947;48.834;9.132;2022-10-16T14:05:17;98344.38;;;21.92;68.17
15694;BME280;7947;48.834;9.132;2022-10-16T14:08:20;98354.06;;;21.77;71.18
15694;BME280;7947;48.834;9.132;2022-10-16T14:11:24;98356.22;;;21.60;73.30
15694;BME280;7947;48.834;9.132;2022-10-16T14:14:34;98355.28;;;21.43;73.63
15694;BME280;7947;48.834;9.132;2022-10-16T14:17:43;98353.69;;;21.30;74.28
15694;BME280;7947;48.834;9.132;2022-10-16T14:20:48;98348.19;;;21.18;75.31
15694;BME280;7947;48.834;9.132;2022-10-16T14:23:52;98354.19;;;21.12;76.50
15694;BME280;7947;48.834;9.132;2022-10-16T14:26:55;98356.03;;;21.08;78.43
15694;BME280;7947;48.834;9.132;2022-10-16T14:30:12;98359.31;;;21.01;80.37
15694;BME280;7947;48.834;9.132;2022-10-16T14:33:23;98361.06;;;20.97;81.43
15694;BME280;7947;48.834;9.132;2022-10-16T14:36:27;98361.28;;;20.92;78.14
15694;BME280;7947;48.834;9.132;2022-10-16T14:39:30;98364.69;;;20.89;79.15
15694;BME280;7947;48.834;9.132;2022-10-16T14:42:34;98360.56;;;20.83;79.98
15694;BME280;7947;48.834;9.132;2022-10-16T14:45:38;98365.25;;;20.83;80.56
15694;BME280;7947;48.834;9.132;2022-10-16T14:48:46;98371.94;;;20.85;81.06
15694;BME280;7947;48.834;9.132;2022-10-16T14:51:50;98364.56;;;20.86;78.19
15694;BME280;7947;48.834;9.132;2022-10-16T14:54:53;98376.72;;;20.88;78.04
15694;BME280;7947;48.834;9.132;2022-10-16T14:57:57;98367.06;;;20.91;76.68
15694;BME280;7947;48.834;9.132;2022-10-16T15:01:02;98372.19;;;20.92;76.60
15694;BME280;7947;48.834;9.132;2022-10-16T15:04:09;98372.19;;;20.92;77.47
15694;BME280;7947;48.834;9.132;2022-10-16T15:07:13;98365.13;;;20.91;77.81
15694;BME280;7947;48.834;9.132;2022-10-16T15:10:17;98372.50;;;20.91;78.51
15694;BME280;7947;48.834;9.132;2022-10-16T15:13:20;98371.75;;;20.90;77.11
15694;BME280;7947;48.834;9.132;2022-10-16T15:16:24;98373.19;;;20.88;77.11
15694;BME280;7947;48.834;9.132;2022-10-16T15:19:27;98372.75;;;20.86;77.40
15694;BME280;7947;48.834;9.132;2022-10-16T15:22:30;98371.00;;;20.81;78.04
15694;BME280;7947;48.834;9.132;2022-10-16T15:25:35;98375.06;;;20.75;78.81
15694;BME280;7947;48.834;9.132;2022-10-16T15:28:40;98364.72;;;20.68;79.19
15694;BME280;7947;48.834;9.132;2022-10-16T15:31:45;98367.63;;;20.63;79.22
15694;BME280;7947;48.834;9.132;2022-10-16T15:34:49;98366.41;;;20.61;79.27
15694;BME280;7947;48.834;9.132;2022-10-16T15:37:52;98368.19;;;20.57;79.81
15694;BME280;7947;48.834;9.132;2022-10-16T15:40:55;98375.56;;;20.56;78.35
15694;BME280;7947;48.834;9.132;2022-10-16T15:43:58;98375.44;;;20.53;78.74
15694;BME280;7947;48.834;9.132;2022-10-16T15:47:10;98370.97;;;20.48;79.89
15694;BME280;7947;48.834;9.132;2022-10-16T15:50:16;98368.47;;;20.43;80.52
15694;BME280;7947;48.834;9.132;2022-10-16T15:53:23;98375.25;;;20.37;81.65
15694;BME280;7947;48.834;9.132;2022-10-16T15:56:29;98375.75;;;20.31;82.67
15694;BME280;7947;48.834;9.132;2022-10-16T15:59:37;98386.84;;;20.26;83.19
15694;BME280;7947;48.834;9.132;2022-10-16T16:02:50;98383.88;;;20.19;83.71
15694;BME280;7947;48.834;9.132;2022-10-16T16:05:54;98384.34;;;20.12;84.21
15694;BME280;7947;48.834;9.132;2022-10-16T16:08:58;98376.69;;;20.06;84.38
15694;BME280;7947;48.834;9.132;2022-10-16T16:12:02;98376.91;;;20.01;85.73
15694;BME280;7947;48.834;9.132;2022-10-16T16:15:09;98371.03;;;19.90;87.08
15694;BME280;7947;48.834;9.132;2022-10-16T16:18:19;98380.38;;;19.80;88.04
15694;BME280;7947;48.834;9.132;2022-10-16T16:21:26;98375.16;;;19.67;88.41
15694;BME280;7947;48.834;9.132;2022-10-16T16:24:32;98374.59;;;19.53;88.85
15694;BME280;7947;48.834;9.132;2022-10-16T16:27:37;98376.41;;;19.40;89.32
15694;BME280;7947;48.834;9.132;2022-10-16T16:30:42;98385.53;;;19.27;89.81
15694;BME280;7947;48.834;9.132;2022-10-16T16:33:48;98388.78;;;19.12;90.29
15694;BME280;7947;48.834;9.132;2022-10-16T16:40:56;98390.72;;;18.86;91.16
15694;BME280;7947;48.834;9.132;2022-10-16T16:44:15;98390.09;;;18.72;91.81